<?xml version="1.0" encoding="UTF-8" standalone="no" ?>
<gpx xmlns="http://www.topografix.com/GPX/1/1" xmlns:xsi="http://www.w3.org/2001/XMLSchema-instance" xsi:schemaLocation="http://www.topografix.com/GPX/1/1 http://www.topografix.com/GPX/1/1/gpx.xsd" version="1.1" creator="VisuGPX - https://www.visugpx.com">
  <metadata>
    <name>Marcelcave</name>
  </metadata>
  <trk>
    <name><![CDATA[8655013-Patapoere 2018 34km]]></name>
    <trkseg>
      <trkpt lat="49.8485" lon="2.57427">
        <ele>97</ele>
        <time>2021-03-27T09:29:02Z</time>
      </trkpt>
      <trkpt lat="49.84834" lon="2.5758">
        <ele>98</ele>
        <time>2021-03-27T09:29:25Z</time>
      </trkpt>
      <trkpt lat="49.84778" lon="2.5754">
        <ele>97</ele>
        <time>2021-03-27T09:29:40Z</time>
      </trkpt>
      <trkpt lat="49.84732" lon="2.57515">
        <ele>96</ele>
        <time>2021-03-27T09:29:51Z</time>
      </trkpt>
      <trkpt lat="49.84678" lon="2.57524">
        <ele>97</ele>
        <time>2021-03-27T09:30:04Z</time>
      </trkpt>
      <trkpt lat="49.84646" lon="2.57549">
        <ele>96</ele>
        <time>2021-03-27T09:30:12Z</time>
      </trkpt>
      <trkpt lat="49.84541" lon="2.57618">
        <ele>93</ele>
        <time>2021-03-27T09:30:39Z</time>
      </trkpt>
      <trkpt lat="49.84528" lon="2.57672">
        <ele>93</ele>
        <time>2021-03-27T09:30:47Z</time>
      </trkpt>
      <trkpt lat="49.84505" lon="2.57719">
        <ele>93</ele>
        <time>2021-03-27T09:30:56Z</time>
      </trkpt>
      <trkpt lat="49.84415" lon="2.57802">
        <ele>93</ele>
        <time>2021-03-27T09:31:21Z</time>
      </trkpt>
      <trkpt lat="49.84285" lon="2.57885">
        <ele>91</ele>
        <time>2021-03-27T09:31:54Z</time>
      </trkpt>
      <trkpt lat="49.84233" lon="2.57874">
        <ele>90</ele>
        <time>2021-03-27T09:32:06Z</time>
      </trkpt>
      <trkpt lat="49.84136" lon="2.57892">
        <ele>89</ele>
        <time>2021-03-27T09:32:29Z</time>
      </trkpt>
      <trkpt lat="49.84103" lon="2.57887">
        <ele>88</ele>
        <time>2021-03-27T09:32:36Z</time>
      </trkpt>
      <trkpt lat="49.84036" lon="2.57862">
        <ele>88</ele>
        <time>2021-03-27T09:32:53Z</time>
      </trkpt>
      <trkpt lat="49.84036" lon="2.58058">
        <ele>90</ele>
        <time>2021-03-27T09:33:22Z</time>
      </trkpt>
      <trkpt lat="49.84017" lon="2.5874">
        <ele>86</ele>
        <time>2021-03-27T09:35:05Z</time>
      </trkpt>
      <trkpt lat="49.83967" lon="2.58766">
        <ele>86</ele>
        <time>2021-03-27T09:35:17Z</time>
      </trkpt>
      <trkpt lat="49.83977" lon="2.59247">
        <ele>83</ele>
        <time>2021-03-27T09:36:30Z</time>
      </trkpt>
      <trkpt lat="49.8389" lon="2.59626">
        <ele>79</ele>
        <time>2021-03-27T09:37:30Z</time>
      </trkpt>
      <trkpt lat="49.83893" lon="2.59911">
        <ele>79</ele>
        <time>2021-03-27T09:38:13Z</time>
      </trkpt>
      <trkpt lat="49.83915" lon="2.60023">
        <ele>72</ele>
        <time>2021-03-27T09:38:31Z</time>
      </trkpt>
      <trkpt lat="49.83931" lon="2.6011">
        <ele>67</ele>
        <time>2021-03-27T09:38:44Z</time>
      </trkpt>
      <trkpt lat="49.83964" lon="2.60184">
        <ele>64</ele>
        <time>2021-03-27T09:38:58Z</time>
      </trkpt>
      <trkpt lat="49.84103" lon="2.60261">
        <ele>66</ele>
        <time>2021-03-27T09:39:32Z</time>
      </trkpt>
      <trkpt lat="49.84183" lon="2.60337">
        <ele>73</ele>
        <time>2021-03-27T09:39:54Z</time>
      </trkpt>
      <trkpt lat="49.8425" lon="2.60487">
        <ele>79</ele>
        <time>2021-03-27T09:40:22Z</time>
      </trkpt>
      <trkpt lat="49.84198" lon="2.60465">
        <ele>77</ele>
        <time>2021-03-27T09:40:34Z</time>
      </trkpt>
      <trkpt lat="49.84062" lon="2.60426">
        <ele>73</ele>
        <time>2021-03-27T09:41:07Z</time>
      </trkpt>
      <trkpt lat="49.84022" lon="2.6042">
        <ele>72</ele>
        <time>2021-03-27T09:41:16Z</time>
      </trkpt>
      <trkpt lat="49.83968" lon="2.60393">
        <ele>71</ele>
        <time>2021-03-27T09:41:29Z</time>
      </trkpt>
      <trkpt lat="49.83866" lon="2.60373">
        <ele>76</ele>
        <time>2021-03-27T09:41:53Z</time>
      </trkpt>
      <trkpt lat="49.83613" lon="2.60169">
        <ele>82</ele>
        <time>2021-03-27T09:43:00Z</time>
      </trkpt>
      <trkpt lat="49.83441" lon="2.6013">
        <ele>80</ele>
        <time>2021-03-27T09:43:41Z</time>
      </trkpt>
      <trkpt lat="49.83399" lon="2.60106">
        <ele>79</ele>
        <time>2021-03-27T09:43:51Z</time>
      </trkpt>
      <trkpt lat="49.83326" lon="2.60034">
        <ele>77</ele>
        <time>2021-03-27T09:44:11Z</time>
      </trkpt>
      <trkpt lat="49.83252" lon="2.59967">
        <ele>75</ele>
        <time>2021-03-27T09:44:31Z</time>
      </trkpt>
      <trkpt lat="49.8319" lon="2.59929">
        <ele>75</ele>
        <time>2021-03-27T09:44:47Z</time>
      </trkpt>
      <trkpt lat="49.83127" lon="2.59897">
        <ele>74</ele>
        <time>2021-03-27T09:45:02Z</time>
      </trkpt>
      <trkpt lat="49.83061" lon="2.59872">
        <ele>71</ele>
        <time>2021-03-27T09:45:18Z</time>
      </trkpt>
      <trkpt lat="49.8308" lon="2.60043">
        <ele>81</ele>
        <time>2021-03-27T09:45:44Z</time>
      </trkpt>
      <trkpt lat="49.83068" lon="2.60251">
        <ele>86</ele>
        <time>2021-03-27T09:46:16Z</time>
      </trkpt>
      <trkpt lat="49.83062" lon="2.60377">
        <ele>88</ele>
        <time>2021-03-27T09:46:35Z</time>
      </trkpt>
      <trkpt lat="49.83015" lon="2.60662">
        <ele>87</ele>
        <time>2021-03-27T09:47:19Z</time>
      </trkpt>
      <trkpt lat="49.83002" lon="2.60732">
        <ele>86</ele>
        <time>2021-03-27T09:47:30Z</time>
      </trkpt>
      <trkpt lat="49.83005" lon="2.61099">
        <ele>81</ele>
        <time>2021-03-27T09:48:25Z</time>
      </trkpt>
      <trkpt lat="49.8299" lon="2.6142">
        <ele>78</ele>
        <time>2021-03-27T09:49:14Z</time>
      </trkpt>
      <trkpt lat="49.82997" lon="2.6158">
        <ele>75</ele>
        <time>2021-03-27T09:49:38Z</time>
      </trkpt>
      <trkpt lat="49.82987" lon="2.61741">
        <ele>69</ele>
        <time>2021-03-27T09:50:02Z</time>
      </trkpt>
      <trkpt lat="49.82894" lon="2.62041">
        <ele>67</ele>
        <time>2021-03-27T09:50:53Z</time>
      </trkpt>
      <trkpt lat="49.82827" lon="2.62205">
        <ele>60</ele>
        <time>2021-03-27T09:51:22Z</time>
      </trkpt>
      <trkpt lat="49.8284" lon="2.62327">
        <ele>57</ele>
        <time>2021-03-27T09:51:40Z</time>
      </trkpt>
      <trkpt lat="49.82948" lon="2.62436">
        <ele>60</ele>
        <time>2021-03-27T09:52:11Z</time>
      </trkpt>
      <trkpt lat="49.83009" lon="2.62483">
        <ele>62</ele>
        <time>2021-03-27T09:52:26Z</time>
      </trkpt>
      <trkpt lat="49.83195" lon="2.62562">
        <ele>69</ele>
        <time>2021-03-27T09:53:11Z</time>
      </trkpt>
      <trkpt lat="49.83211" lon="2.62483">
        <ele>76</ele>
        <time>2021-03-27T09:53:24Z</time>
      </trkpt>
      <trkpt lat="49.83271" lon="2.62427">
        <ele>78</ele>
        <time>2021-03-27T09:53:40Z</time>
      </trkpt>
      <trkpt lat="49.83349" lon="2.62398">
        <ele>80</ele>
        <time>2021-03-27T09:53:59Z</time>
      </trkpt>
      <trkpt lat="49.8343" lon="2.62392">
        <ele>78</ele>
        <time>2021-03-27T09:54:18Z</time>
      </trkpt>
      <trkpt lat="49.83516" lon="2.62456">
        <ele>71</ele>
        <time>2021-03-27T09:54:40Z</time>
      </trkpt>
      <trkpt lat="49.83665" lon="2.62493">
        <ele>77</ele>
        <time>2021-03-27T09:55:15Z</time>
      </trkpt>
      <trkpt lat="49.8384" lon="2.62567">
        <ele>79</ele>
        <time>2021-03-27T09:55:58Z</time>
      </trkpt>
      <trkpt lat="49.83977" lon="2.62614">
        <ele>84</ele>
        <time>2021-03-27T09:56:31Z</time>
      </trkpt>
      <trkpt lat="49.83972" lon="2.62643">
        <ele>84</ele>
        <time>2021-03-27T09:56:35Z</time>
      </trkpt>
      <trkpt lat="49.83937" lon="2.62688">
        <ele>83</ele>
        <time>2021-03-27T09:56:46Z</time>
      </trkpt>
      <trkpt lat="49.8389" lon="2.62741">
        <ele>81</ele>
        <time>2021-03-27T09:56:59Z</time>
      </trkpt>
      <trkpt lat="49.83849" lon="2.62788">
        <ele>80</ele>
        <time>2021-03-27T09:57:11Z</time>
      </trkpt>
      <trkpt lat="49.8376" lon="2.62917">
        <ele>79</ele>
        <time>2021-03-27T09:57:40Z</time>
      </trkpt>
      <trkpt lat="49.83674" lon="2.62766">
        <ele>77</ele>
        <time>2021-03-27T09:58:10Z</time>
      </trkpt>
      <trkpt lat="49.83648" lon="2.62761">
        <ele>77</ele>
        <time>2021-03-27T09:58:16Z</time>
      </trkpt>
      <trkpt lat="49.83532" lon="2.62591">
        <ele>75</ele>
        <time>2021-03-27T09:58:53Z</time>
      </trkpt>
      <trkpt lat="49.83518" lon="2.6258">
        <ele>75</ele>
        <time>2021-03-27T09:58:57Z</time>
      </trkpt>
      <trkpt lat="49.83461" lon="2.62571">
        <ele>73</ele>
        <time>2021-03-27T09:59:10Z</time>
      </trkpt>
      <trkpt lat="49.8342" lon="2.62582">
        <ele>73</ele>
        <time>2021-03-27T09:59:20Z</time>
      </trkpt>
      <trkpt lat="49.8326" lon="2.62683">
        <ele>70</ele>
        <time>2021-03-27T10:00:01Z</time>
      </trkpt>
      <trkpt lat="49.83227" lon="2.62679">
        <ele>69</ele>
        <time>2021-03-27T10:00:08Z</time>
      </trkpt>
      <trkpt lat="49.83205" lon="2.62867">
        <ele>79</ele>
        <time>2021-03-27T10:00:37Z</time>
      </trkpt>
      <trkpt lat="49.83112" lon="2.62845">
        <ele>80</ele>
        <time>2021-03-27T10:00:59Z</time>
      </trkpt>
      <trkpt lat="49.83085" lon="2.63322">
        <ele>89</ele>
        <time>2021-03-27T10:02:11Z</time>
      </trkpt>
      <trkpt lat="49.82962" lon="2.63405">
        <ele>86</ele>
        <time>2021-03-27T10:02:42Z</time>
      </trkpt>
      <trkpt lat="49.83194" lon="2.63952">
        <ele>84</ele>
        <time>2021-03-27T10:04:21Z</time>
      </trkpt>
      <trkpt lat="49.82866" lon="2.64232">
        <ele>76</ele>
        <time>2021-03-27T10:05:49Z</time>
      </trkpt>
      <trkpt lat="49.8284" lon="2.64235">
        <ele>75</ele>
        <time>2021-03-27T10:05:55Z</time>
      </trkpt>
      <trkpt lat="49.82819" lon="2.64262">
        <ele>74</ele>
        <time>2021-03-27T10:06:01Z</time>
      </trkpt>
      <trkpt lat="49.82784" lon="2.64273">
        <ele>71</ele>
        <time>2021-03-27T10:06:09Z</time>
      </trkpt>
      <trkpt lat="49.82722" lon="2.64312">
        <ele>66</ele>
        <time>2021-03-27T10:06:25Z</time>
      </trkpt>
      <trkpt lat="49.82698" lon="2.64347">
        <ele>63</ele>
        <time>2021-03-27T10:06:33Z</time>
      </trkpt>
      <trkpt lat="49.82687" lon="2.6443">
        <ele>61</ele>
        <time>2021-03-27T10:06:45Z</time>
      </trkpt>
      <trkpt lat="49.82591" lon="2.64199">
        <ele>60</ele>
        <time>2021-03-27T10:07:27Z</time>
      </trkpt>
      <trkpt lat="49.82479" lon="2.63982">
        <ele>58</ele>
        <time>2021-03-27T10:08:09Z</time>
      </trkpt>
      <trkpt lat="49.82483" lon="2.63842">
        <ele>58</ele>
        <time>2021-03-27T10:08:30Z</time>
      </trkpt>
      <trkpt lat="49.82499" lon="2.63637">
        <ele>61</ele>
        <time>2021-03-27T10:09:01Z</time>
      </trkpt>
      <trkpt lat="49.82615" lon="2.63574">
        <ele>68</ele>
        <time>2021-03-27T10:09:30Z</time>
      </trkpt>
      <trkpt lat="49.8261" lon="2.63526">
        <ele>67</ele>
        <time>2021-03-27T10:09:37Z</time>
      </trkpt>
      <trkpt lat="49.82624" lon="2.63284">
        <ele>66</ele>
        <time>2021-03-27T10:10:14Z</time>
      </trkpt>
      <trkpt lat="49.82623" lon="2.63049">
        <ele>68</ele>
        <time>2021-03-27T10:10:49Z</time>
      </trkpt>
      <trkpt lat="49.82609" lon="2.62919">
        <ele>68</ele>
        <time>2021-03-27T10:11:09Z</time>
      </trkpt>
      <trkpt lat="49.82617" lon="2.62858">
        <ele>68</ele>
        <time>2021-03-27T10:11:18Z</time>
      </trkpt>
      <trkpt lat="49.82736" lon="2.62566">
        <ele>62</ele>
        <time>2021-03-27T10:12:10Z</time>
      </trkpt>
      <trkpt lat="49.82745" lon="2.62501">
        <ele>58</ele>
        <time>2021-03-27T10:12:20Z</time>
      </trkpt>
      <trkpt lat="49.82758" lon="2.62403">
        <ele>56</ele>
        <time>2021-03-27T10:12:35Z</time>
      </trkpt>
      <trkpt lat="49.82805" lon="2.62365">
        <ele>56</ele>
        <time>2021-03-27T10:12:48Z</time>
      </trkpt>
      <trkpt lat="49.82822" lon="2.62336">
        <ele>57</ele>
        <time>2021-03-27T10:12:54Z</time>
      </trkpt>
      <trkpt lat="49.82798" lon="2.62304">
        <ele>56</ele>
        <time>2021-03-27T10:13:01Z</time>
      </trkpt>
      <trkpt lat="49.8275" lon="2.62264">
        <ele>56</ele>
        <time>2021-03-27T10:13:14Z</time>
      </trkpt>
      <trkpt lat="49.82739" lon="2.62233">
        <ele>57</ele>
        <time>2021-03-27T10:13:19Z</time>
      </trkpt>
      <trkpt lat="49.82731" lon="2.6201">
        <ele>58</ele>
        <time>2021-03-27T10:13:53Z</time>
      </trkpt>
      <trkpt lat="49.82736" lon="2.61905">
        <ele>58</ele>
        <time>2021-03-27T10:14:09Z</time>
      </trkpt>
      <trkpt lat="49.82754" lon="2.61838">
        <ele>55</ele>
        <time>2021-03-27T10:14:19Z</time>
      </trkpt>
      <trkpt lat="49.82782" lon="2.6178">
        <ele>56</ele>
        <time>2021-03-27T10:14:30Z</time>
      </trkpt>
      <trkpt lat="49.82787" lon="2.61725">
        <ele>57</ele>
        <time>2021-03-27T10:14:39Z</time>
      </trkpt>
      <trkpt lat="49.82768" lon="2.61486">
        <ele>58</ele>
        <time>2021-03-27T10:15:15Z</time>
      </trkpt>
      <trkpt lat="49.82676" lon="2.61202">
        <ele>58</ele>
        <time>2021-03-27T10:16:03Z</time>
      </trkpt>
      <trkpt lat="49.82596" lon="2.6092">
        <ele>57</ele>
        <time>2021-03-27T10:16:49Z</time>
      </trkpt>
      <trkpt lat="49.82568" lon="2.60879">
        <ele>56</ele>
        <time>2021-03-27T10:16:58Z</time>
      </trkpt>
      <trkpt lat="49.82521" lon="2.6082">
        <ele>54</ele>
        <time>2021-03-27T10:17:12Z</time>
      </trkpt>
      <trkpt lat="49.82456" lon="2.60715">
        <ele>57</ele>
        <time>2021-03-27T10:17:34Z</time>
      </trkpt>
      <trkpt lat="49.82393" lon="2.60596">
        <ele>54</ele>
        <time>2021-03-27T10:17:58Z</time>
      </trkpt>
      <trkpt lat="49.82355" lon="2.60473">
        <ele>56</ele>
        <time>2021-03-27T10:18:18Z</time>
      </trkpt>
      <trkpt lat="49.82346" lon="2.6043">
        <ele>56</ele>
        <time>2021-03-27T10:18:25Z</time>
      </trkpt>
      <trkpt lat="49.82341" lon="2.60375">
        <ele>56</ele>
        <time>2021-03-27T10:18:33Z</time>
      </trkpt>
      <trkpt lat="49.82354" lon="2.60245">
        <ele>55</ele>
        <time>2021-03-27T10:18:53Z</time>
      </trkpt>
      <trkpt lat="49.82406" lon="2.60257">
        <ele>57</ele>
        <time>2021-03-27T10:19:05Z</time>
      </trkpt>
      <trkpt lat="49.82424" lon="2.60217">
        <ele>56</ele>
        <time>2021-03-27T10:19:13Z</time>
      </trkpt>
      <trkpt lat="49.82496" lon="2.60144">
        <ele>59</ele>
        <time>2021-03-27T10:19:33Z</time>
      </trkpt>
      <trkpt lat="49.82542" lon="2.60088">
        <ele>61</ele>
        <time>2021-03-27T10:19:46Z</time>
      </trkpt>
      <trkpt lat="49.82575" lon="2.60022">
        <ele>59</ele>
        <time>2021-03-27T10:19:59Z</time>
      </trkpt>
      <trkpt lat="49.82629" lon="2.59857">
        <ele>58</ele>
        <time>2021-03-27T10:20:27Z</time>
      </trkpt>
      <trkpt lat="49.82665" lon="2.59713">
        <ele>55</ele>
        <time>2021-03-27T10:20:50Z</time>
      </trkpt>
      <trkpt lat="49.8269" lon="2.59675">
        <ele>54</ele>
        <time>2021-03-27T10:20:58Z</time>
      </trkpt>
      <trkpt lat="49.82779" lon="2.59647">
        <ele>54</ele>
        <time>2021-03-27T10:21:20Z</time>
      </trkpt>
      <trkpt lat="49.82854" lon="2.59686">
        <ele>54</ele>
        <time>2021-03-27T10:21:38Z</time>
      </trkpt>
      <trkpt lat="49.82929" lon="2.59672">
        <ele>54</ele>
        <time>2021-03-27T10:21:56Z</time>
      </trkpt>
      <trkpt lat="49.82973" lon="2.59649">
        <ele>54</ele>
        <time>2021-03-27T10:22:07Z</time>
      </trkpt>
      <trkpt lat="49.83084" lon="2.59625">
        <ele>55</ele>
        <time>2021-03-27T10:22:33Z</time>
      </trkpt>
      <trkpt lat="49.83084" lon="2.59608">
        <ele>54</ele>
        <time>2021-03-27T10:22:35Z</time>
      </trkpt>
      <trkpt lat="49.83149" lon="2.59389">
        <ele>60</ele>
        <time>2021-03-27T10:23:12Z</time>
      </trkpt>
      <trkpt lat="49.8311" lon="2.59138">
        <ele>66</ele>
        <time>2021-03-27T10:23:50Z</time>
      </trkpt>
      <trkpt lat="49.83108" lon="2.59106">
        <ele>67</ele>
        <time>2021-03-27T10:23:55Z</time>
      </trkpt>
      <trkpt lat="49.83144" lon="2.58843">
        <ele>73</ele>
        <time>2021-03-27T10:24:36Z</time>
      </trkpt>
      <trkpt lat="49.83144" lon="2.58786">
        <ele>73</ele>
        <time>2021-03-27T10:24:44Z</time>
      </trkpt>
      <trkpt lat="49.8313" lon="2.5864">
        <ele>76</ele>
        <time>2021-03-27T10:25:07Z</time>
      </trkpt>
      <trkpt lat="49.83114" lon="2.5844">
        <ele>73</ele>
        <time>2021-03-27T10:25:37Z</time>
      </trkpt>
      <trkpt lat="49.83099" lon="2.58348">
        <ele>72</ele>
        <time>2021-03-27T10:25:51Z</time>
      </trkpt>
      <trkpt lat="49.83068" lon="2.58266">
        <ele>70</ele>
        <time>2021-03-27T10:26:06Z</time>
      </trkpt>
      <trkpt lat="49.83046" lon="2.58217">
        <ele>68</ele>
        <time>2021-03-27T10:26:15Z</time>
      </trkpt>
      <trkpt lat="49.83025" lon="2.58092">
        <ele>65</ele>
        <time>2021-03-27T10:26:34Z</time>
      </trkpt>
      <trkpt lat="49.8302" lon="2.58055">
        <ele>64</ele>
        <time>2021-03-27T10:26:40Z</time>
      </trkpt>
      <trkpt lat="49.82984" lon="2.57931">
        <ele>58</ele>
        <time>2021-03-27T10:27:00Z</time>
      </trkpt>
      <trkpt lat="49.83004" lon="2.5787">
        <ele>60</ele>
        <time>2021-03-27T10:27:11Z</time>
      </trkpt>
      <trkpt lat="49.83038" lon="2.57829">
        <ele>59</ele>
        <time>2021-03-27T10:27:21Z</time>
      </trkpt>
      <trkpt lat="49.8321" lon="2.57843">
        <ele>64</ele>
        <time>2021-03-27T10:28:01Z</time>
      </trkpt>
      <trkpt lat="49.83276" lon="2.57854">
        <ele>67</ele>
        <time>2021-03-27T10:28:16Z</time>
      </trkpt>
      <trkpt lat="49.83339" lon="2.57901">
        <ele>72</ele>
        <time>2021-03-27T10:28:33Z</time>
      </trkpt>
      <trkpt lat="49.83395" lon="2.57973">
        <ele>74</ele>
        <time>2021-03-27T10:28:50Z</time>
      </trkpt>
      <trkpt lat="49.83428" lon="2.57998">
        <ele>71</ele>
        <time>2021-03-27T10:28:58Z</time>
      </trkpt>
      <trkpt lat="49.83519" lon="2.58002">
        <ele>74</ele>
        <time>2021-03-27T10:29:19Z</time>
      </trkpt>
      <trkpt lat="49.83586" lon="2.58002">
        <ele>75</ele>
        <time>2021-03-27T10:29:35Z</time>
      </trkpt>
      <trkpt lat="49.83582" lon="2.57881">
        <ele>84</ele>
        <time>2021-03-27T10:29:53Z</time>
      </trkpt>
      <trkpt lat="49.83543" lon="2.5787">
        <ele>84</ele>
        <time>2021-03-27T10:30:03Z</time>
      </trkpt>
      <trkpt lat="49.83517" lon="2.57831">
        <ele>85</ele>
        <time>2021-03-27T10:30:11Z</time>
      </trkpt>
      <trkpt lat="49.8352" lon="2.57722">
        <ele>88</ele>
        <time>2021-03-27T10:30:27Z</time>
      </trkpt>
      <trkpt lat="49.83514" lon="2.57432">
        <ele>93</ele>
        <time>2021-03-27T10:31:11Z</time>
      </trkpt>
      <trkpt lat="49.83412" lon="2.57423">
        <ele>91</ele>
        <time>2021-03-27T10:31:35Z</time>
      </trkpt>
      <trkpt lat="49.83394" lon="2.57024">
        <ele>90</ele>
        <time>2021-03-27T10:32:35Z</time>
      </trkpt>
      <trkpt lat="49.83106" lon="2.56945">
        <ele>76</ele>
        <time>2021-03-27T10:33:44Z</time>
      </trkpt>
      <trkpt lat="49.83029" lon="2.56941">
        <ele>70</ele>
        <time>2021-03-27T10:34:02Z</time>
      </trkpt>
      <trkpt lat="49.83006" lon="2.56698">
        <ele>73</ele>
        <time>2021-03-27T10:34:39Z</time>
      </trkpt>
      <trkpt lat="49.83008" lon="2.5649">
        <ele>74</ele>
        <time>2021-03-27T10:35:10Z</time>
      </trkpt>
      <trkpt lat="49.83013" lon="2.56275">
        <ele>74</ele>
        <time>2021-03-27T10:35:42Z</time>
      </trkpt>
      <trkpt lat="49.82944" lon="2.5632">
        <ele>69</ele>
        <time>2021-03-27T10:36:00Z</time>
      </trkpt>
      <trkpt lat="49.82879" lon="2.56387">
        <ele>60</ele>
        <time>2021-03-27T10:36:18Z</time>
      </trkpt>
      <trkpt lat="49.82782" lon="2.56469">
        <ele>51</ele>
        <time>2021-03-27T10:36:44Z</time>
      </trkpt>
      <trkpt lat="49.82779" lon="2.56524">
        <ele>52</ele>
        <time>2021-03-27T10:36:52Z</time>
      </trkpt>
      <trkpt lat="49.82741" lon="2.56758">
        <ele>51</ele>
        <time>2021-03-27T10:37:29Z</time>
      </trkpt>
      <trkpt lat="49.82746" lon="2.56827">
        <ele>51</ele>
        <time>2021-03-27T10:37:39Z</time>
      </trkpt>
      <trkpt lat="49.82604" lon="2.56911">
        <ele>48</ele>
        <time>2021-03-27T10:38:14Z</time>
      </trkpt>
      <trkpt lat="49.82528" lon="2.56947">
        <ele>49</ele>
        <time>2021-03-27T10:38:33Z</time>
      </trkpt>
      <trkpt lat="49.82468" lon="2.57001">
        <ele>52</ele>
        <time>2021-03-27T10:38:49Z</time>
      </trkpt>
      <trkpt lat="49.82467" lon="2.57004">
        <ele>52</ele>
        <time>2021-03-27T10:38:50Z</time>
      </trkpt>
      <trkpt lat="49.82601" lon="2.5723">
        <ele>54</ele>
        <time>2021-03-27T10:39:36Z</time>
      </trkpt>
      <trkpt lat="49.82616" lon="2.57293">
        <ele>56</ele>
        <time>2021-03-27T10:39:46Z</time>
      </trkpt>
      <trkpt lat="49.82648" lon="2.57338">
        <ele>54</ele>
        <time>2021-03-27T10:39:56Z</time>
      </trkpt>
      <trkpt lat="49.8264" lon="2.57413">
        <ele>55</ele>
        <time>2021-03-27T10:40:08Z</time>
      </trkpt>
      <trkpt lat="49.82633" lon="2.57456">
        <ele>55</ele>
        <time>2021-03-27T10:40:14Z</time>
      </trkpt>
      <trkpt lat="49.82577" lon="2.5752">
        <ele>58</ele>
        <time>2021-03-27T10:40:31Z</time>
      </trkpt>
      <trkpt lat="49.8245" lon="2.57576">
        <ele>63</ele>
        <time>2021-03-27T10:41:01Z</time>
      </trkpt>
      <trkpt lat="49.82381" lon="2.57606">
        <ele>67</ele>
        <time>2021-03-27T10:41:18Z</time>
      </trkpt>
      <trkpt lat="49.82353" lon="2.57634">
        <ele>68</ele>
        <time>2021-03-27T10:41:26Z</time>
      </trkpt>
      <trkpt lat="49.82331" lon="2.57674">
        <ele>69</ele>
        <time>2021-03-27T10:41:34Z</time>
      </trkpt>
      <trkpt lat="49.82197" lon="2.57829">
        <ele>75</ele>
        <time>2021-03-27T10:42:13Z</time>
      </trkpt>
      <trkpt lat="49.82143" lon="2.5791">
        <ele>79</ele>
        <time>2021-03-27T10:42:30Z</time>
      </trkpt>
      <trkpt lat="49.82051" lon="2.58035">
        <ele>82</ele>
        <time>2021-03-27T10:42:59Z</time>
      </trkpt>
      <trkpt lat="49.81989" lon="2.58127">
        <ele>83</ele>
        <time>2021-03-27T10:43:19Z</time>
      </trkpt>
      <trkpt lat="49.81925" lon="2.58284">
        <ele>83</ele>
        <time>2021-03-27T10:43:47Z</time>
      </trkpt>
      <trkpt lat="49.8182" lon="2.58503">
        <ele>83</ele>
        <time>2021-03-27T10:44:28Z</time>
      </trkpt>
      <trkpt lat="49.81737" lon="2.58666">
        <ele>79</ele>
        <time>2021-03-27T10:44:59Z</time>
      </trkpt>
      <trkpt lat="49.81684" lon="2.58752">
        <ele>74</ele>
        <time>2021-03-27T10:45:17Z</time>
      </trkpt>
      <trkpt lat="49.81661" lon="2.58799">
        <ele>71</ele>
        <time>2021-03-27T10:45:26Z</time>
      </trkpt>
      <trkpt lat="49.81644" lon="2.58782">
        <ele>70</ele>
        <time>2021-03-27T10:45:31Z</time>
      </trkpt>
      <trkpt lat="49.81629" lon="2.587">
        <ele>72</ele>
        <time>2021-03-27T10:45:44Z</time>
      </trkpt>
      <trkpt lat="49.81614" lon="2.58614">
        <ele>75</ele>
        <time>2021-03-27T10:45:57Z</time>
      </trkpt>
      <trkpt lat="49.81596" lon="2.5849">
        <ele>78</ele>
        <time>2021-03-27T10:46:16Z</time>
      </trkpt>
      <trkpt lat="49.81585" lon="2.58297">
        <ele>81</ele>
        <time>2021-03-27T10:46:46Z</time>
      </trkpt>
      <trkpt lat="49.81603" lon="2.58084">
        <ele>85</ele>
        <time>2021-03-27T10:47:18Z</time>
      </trkpt>
      <trkpt lat="49.81597" lon="2.57938">
        <ele>88</ele>
        <time>2021-03-27T10:47:40Z</time>
      </trkpt>
      <trkpt lat="49.81569" lon="2.57724">
        <ele>90</ele>
        <time>2021-03-27T10:48:13Z</time>
      </trkpt>
      <trkpt lat="49.81536" lon="2.5743">
        <ele>92</ele>
        <time>2021-03-27T10:48:58Z</time>
      </trkpt>
      <trkpt lat="49.81514" lon="2.57196">
        <ele>91</ele>
        <time>2021-03-27T10:49:34Z</time>
      </trkpt>
      <trkpt lat="49.81666" lon="2.57179">
        <ele>88</ele>
        <time>2021-03-27T10:50:09Z</time>
      </trkpt>
      <trkpt lat="49.81743" lon="2.57187">
        <ele>88</ele>
        <time>2021-03-27T10:50:27Z</time>
      </trkpt>
      <trkpt lat="49.81831" lon="2.57087">
        <ele>84</ele>
        <time>2021-03-27T10:50:53Z</time>
      </trkpt>
      <trkpt lat="49.81959" lon="2.57022">
        <ele>77</ele>
        <time>2021-03-27T10:51:24Z</time>
      </trkpt>
      <trkpt lat="49.82079" lon="2.5699">
        <ele>68</ele>
        <time>2021-03-27T10:51:52Z</time>
      </trkpt>
      <trkpt lat="49.82143" lon="2.56932">
        <ele>61</ele>
        <time>2021-03-27T10:52:10Z</time>
      </trkpt>
      <trkpt lat="49.82175" lon="2.56921">
        <ele>59</ele>
        <time>2021-03-27T10:52:17Z</time>
      </trkpt>
      <trkpt lat="49.82097" lon="2.56861">
        <ele>63</ele>
        <time>2021-03-27T10:52:38Z</time>
      </trkpt>
      <trkpt lat="49.82021" lon="2.56771">
        <ele>72</ele>
        <time>2021-03-27T10:53:00Z</time>
      </trkpt>
      <trkpt lat="49.81965" lon="2.56732">
        <ele>74</ele>
        <time>2021-03-27T10:53:14Z</time>
      </trkpt>
      <trkpt lat="49.81885" lon="2.56702">
        <ele>75</ele>
        <time>2021-03-27T10:53:34Z</time>
      </trkpt>
      <trkpt lat="49.8183" lon="2.56681">
        <ele>76</ele>
        <time>2021-03-27T10:53:47Z</time>
      </trkpt>
      <trkpt lat="49.81784" lon="2.56647">
        <ele>78</ele>
        <time>2021-03-27T10:53:59Z</time>
      </trkpt>
      <trkpt lat="49.81672" lon="2.56651">
        <ele>82</ele>
        <time>2021-03-27T10:54:25Z</time>
      </trkpt>
      <trkpt lat="49.81632" lon="2.56623">
        <ele>84</ele>
        <time>2021-03-27T10:54:35Z</time>
      </trkpt>
      <trkpt lat="49.8156" lon="2.56614">
        <ele>88</ele>
        <time>2021-03-27T10:54:52Z</time>
      </trkpt>
      <trkpt lat="49.81532" lon="2.56617">
        <ele>90</ele>
        <time>2021-03-27T10:54:59Z</time>
      </trkpt>
      <trkpt lat="49.81486" lon="2.56629">
        <ele>91</ele>
        <time>2021-03-27T10:55:10Z</time>
      </trkpt>
      <trkpt lat="49.81467" lon="2.56503">
        <ele>91</ele>
        <time>2021-03-27T10:55:29Z</time>
      </trkpt>
      <trkpt lat="49.81489" lon="2.5628">
        <ele>90</ele>
        <time>2021-03-27T10:56:03Z</time>
      </trkpt>
      <trkpt lat="49.81891" lon="2.56358">
        <ele>89</ele>
        <time>2021-03-27T10:57:38Z</time>
      </trkpt>
      <trkpt lat="49.8201" lon="2.564">
        <ele>86</ele>
        <time>2021-03-27T10:58:06Z</time>
      </trkpt>
      <trkpt lat="49.82143" lon="2.56423">
        <ele>83</ele>
        <time>2021-03-27T10:58:37Z</time>
      </trkpt>
      <trkpt lat="49.82215" lon="2.56419">
        <ele>81</ele>
        <time>2021-03-27T10:58:54Z</time>
      </trkpt>
      <trkpt lat="49.82158" lon="2.55728">
        <ele>79</ele>
        <time>2021-03-27T11:00:39Z</time>
      </trkpt>
      <trkpt lat="49.82136" lon="2.55572">
        <ele>78</ele>
        <time>2021-03-27T11:01:03Z</time>
      </trkpt>
      <trkpt lat="49.82246" lon="2.55524">
        <ele>70</ele>
        <time>2021-03-27T11:01:30Z</time>
      </trkpt>
      <trkpt lat="49.8236" lon="2.55443">
        <ele>58</ele>
        <time>2021-03-27T11:01:59Z</time>
      </trkpt>
      <trkpt lat="49.82339" lon="2.55363">
        <ele>58</ele>
        <time>2021-03-27T11:02:12Z</time>
      </trkpt>
      <trkpt lat="49.82318" lon="2.55211">
        <ele>59</ele>
        <time>2021-03-27T11:02:36Z</time>
      </trkpt>
      <trkpt lat="49.82303" lon="2.55134">
        <ele>58</ele>
        <time>2021-03-27T11:02:48Z</time>
      </trkpt>
      <trkpt lat="49.82248" lon="2.54977">
        <ele>60</ele>
        <time>2021-03-27T11:03:15Z</time>
      </trkpt>
      <trkpt lat="49.82195" lon="2.54866">
        <ele>60</ele>
        <time>2021-03-27T11:03:35Z</time>
      </trkpt>
      <trkpt lat="49.82316" lon="2.54743">
        <ele>50</ele>
        <time>2021-03-27T11:04:09Z</time>
      </trkpt>
      <trkpt lat="49.82341" lon="2.5481">
        <ele>48</ele>
        <time>2021-03-27T11:04:21Z</time>
      </trkpt>
      <trkpt lat="49.8239" lon="2.5478">
        <ele>47</ele>
        <time>2021-03-27T11:04:33Z</time>
      </trkpt>
      <trkpt lat="49.82433" lon="2.54748">
        <ele>46</ele>
        <time>2021-03-27T11:04:44Z</time>
      </trkpt>
      <trkpt lat="49.82468" lon="2.54722">
        <ele>45</ele>
        <time>2021-03-27T11:04:53Z</time>
      </trkpt>
      <trkpt lat="49.82487" lon="2.54677">
        <ele>45</ele>
        <time>2021-03-27T11:05:02Z</time>
      </trkpt>
      <trkpt lat="49.82492" lon="2.54623">
        <ele>45</ele>
        <time>2021-03-27T11:05:10Z</time>
      </trkpt>
      <trkpt lat="49.82504" lon="2.54565">
        <ele>45</ele>
        <time>2021-03-27T11:05:19Z</time>
      </trkpt>
      <trkpt lat="49.82543" lon="2.54535">
        <ele>46</ele>
        <time>2021-03-27T11:05:29Z</time>
      </trkpt>
      <trkpt lat="49.82572" lon="2.54514">
        <ele>47</ele>
        <time>2021-03-27T11:05:37Z</time>
      </trkpt>
      <trkpt lat="49.82519" lon="2.54411">
        <ele>45</ele>
        <time>2021-03-27T11:05:56Z</time>
      </trkpt>
      <trkpt lat="49.82462" lon="2.54338">
        <ele>46</ele>
        <time>2021-03-27T11:06:14Z</time>
      </trkpt>
      <trkpt lat="49.82357" lon="2.54209">
        <ele>46</ele>
        <time>2021-03-27T11:06:45Z</time>
      </trkpt>
      <trkpt lat="49.82258" lon="2.54085">
        <ele>45</ele>
        <time>2021-03-27T11:07:15Z</time>
      </trkpt>
      <trkpt lat="49.82349" lon="2.54031">
        <ele>43</ele>
        <time>2021-03-27T11:07:37Z</time>
      </trkpt>
      <trkpt lat="49.82529" lon="2.53958">
        <ele>46</ele>
        <time>2021-03-27T11:08:21Z</time>
      </trkpt>
      <trkpt lat="49.82573" lon="2.54117">
        <ele>48</ele>
        <time>2021-03-27T11:08:47Z</time>
      </trkpt>
      <trkpt lat="49.82624" lon="2.54055">
        <ele>49</ele>
        <time>2021-03-27T11:09:02Z</time>
      </trkpt>
      <trkpt lat="49.8263" lon="2.54082">
        <ele>49</ele>
        <time>2021-03-27T11:09:06Z</time>
      </trkpt>
      <trkpt lat="49.82612" lon="2.54168">
        <ele>52</ele>
        <time>2021-03-27T11:09:20Z</time>
      </trkpt>
      <trkpt lat="49.82616" lon="2.54269">
        <ele>54</ele>
        <time>2021-03-27T11:09:35Z</time>
      </trkpt>
      <trkpt lat="49.82655" lon="2.54379">
        <ele>58</ele>
        <time>2021-03-27T11:09:54Z</time>
      </trkpt>
      <trkpt lat="49.82699" lon="2.54494">
        <ele>57</ele>
        <time>2021-03-27T11:10:14Z</time>
      </trkpt>
      <trkpt lat="49.82755" lon="2.54585">
        <ele>59</ele>
        <time>2021-03-27T11:10:33Z</time>
      </trkpt>
      <trkpt lat="49.8281" lon="2.54696">
        <ele>60</ele>
        <time>2021-03-27T11:10:54Z</time>
      </trkpt>
      <trkpt lat="49.82828" lon="2.54788">
        <ele>60</ele>
        <time>2021-03-27T11:11:09Z</time>
      </trkpt>
      <trkpt lat="49.82832" lon="2.54915">
        <ele>60</ele>
        <time>2021-03-27T11:11:28Z</time>
      </trkpt>
      <trkpt lat="49.82847" lon="2.54988">
        <ele>60</ele>
        <time>2021-03-27T11:11:40Z</time>
      </trkpt>
      <trkpt lat="49.82886" lon="2.5511">
        <ele>64</ele>
        <time>2021-03-27T11:12:00Z</time>
      </trkpt>
      <trkpt lat="49.82975" lon="2.55359">
        <ele>69</ele>
        <time>2021-03-27T11:12:43Z</time>
      </trkpt>
      <trkpt lat="49.83019" lon="2.55655">
        <ele>71</ele>
        <time>2021-03-27T11:13:29Z</time>
      </trkpt>
      <trkpt lat="49.83066" lon="2.55866">
        <ele>67</ele>
        <time>2021-03-27T11:14:02Z</time>
      </trkpt>
      <trkpt lat="49.8308" lon="2.55936">
        <ele>67</ele>
        <time>2021-03-27T11:14:13Z</time>
      </trkpt>
      <trkpt lat="49.83042" lon="2.56009">
        <ele>67</ele>
        <time>2021-03-27T11:14:28Z</time>
      </trkpt>
      <trkpt lat="49.83026" lon="2.56089">
        <ele>71</ele>
        <time>2021-03-27T11:14:40Z</time>
      </trkpt>
      <trkpt lat="49.83014" lon="2.56252">
        <ele>73</ele>
        <time>2021-03-27T11:15:05Z</time>
      </trkpt>
      <trkpt lat="49.83029" lon="2.56263">
        <ele>75</ele>
        <time>2021-03-27T11:15:09Z</time>
      </trkpt>
      <trkpt lat="49.83185" lon="2.56191">
        <ele>81</ele>
        <time>2021-03-27T11:15:47Z</time>
      </trkpt>
      <trkpt lat="49.8326" lon="2.56137">
        <ele>83</ele>
        <time>2021-03-27T11:16:06Z</time>
      </trkpt>
      <trkpt lat="49.83344" lon="2.56043">
        <ele>86</ele>
        <time>2021-03-27T11:16:30Z</time>
      </trkpt>
      <trkpt lat="49.8341" lon="2.55983">
        <ele>91</ele>
        <time>2021-03-27T11:16:48Z</time>
      </trkpt>
      <trkpt lat="49.83479" lon="2.55941">
        <ele>95</ele>
        <time>2021-03-27T11:17:05Z</time>
      </trkpt>
      <trkpt lat="49.83591" lon="2.55859">
        <ele>98</ele>
        <time>2021-03-27T11:17:34Z</time>
      </trkpt>
      <trkpt lat="49.83633" lon="2.55819">
        <ele>98</ele>
        <time>2021-03-27T11:17:46Z</time>
      </trkpt>
      <trkpt lat="49.83637" lon="2.56089">
        <ele>99</ele>
        <time>2021-03-27T11:18:27Z</time>
      </trkpt>
      <trkpt lat="49.83817" lon="2.56253">
        <ele>100</ele>
        <time>2021-03-27T11:19:15Z</time>
      </trkpt>
      <trkpt lat="49.83999" lon="2.5645">
        <ele>99</ele>
        <time>2021-03-27T11:20:07Z</time>
      </trkpt>
      <trkpt lat="49.84155" lon="2.56625">
        <ele>97</ele>
        <time>2021-03-27T11:20:52Z</time>
      </trkpt>
      <trkpt lat="49.84261" lon="2.56742">
        <ele>95</ele>
        <time>2021-03-27T11:21:22Z</time>
      </trkpt>
      <trkpt lat="49.84347" lon="2.56834">
        <ele>96</ele>
        <time>2021-03-27T11:21:47Z</time>
      </trkpt>
      <trkpt lat="49.84403" lon="2.56836">
        <ele>95</ele>
        <time>2021-03-27T11:22:00Z</time>
      </trkpt>
      <trkpt lat="49.84513" lon="2.56759">
        <ele>97</ele>
        <time>2021-03-27T11:22:28Z</time>
      </trkpt>
      <trkpt lat="49.84483" lon="2.57021">
        <ele>95</ele>
        <time>2021-03-27T11:23:08Z</time>
      </trkpt>
      <trkpt lat="49.8446" lon="2.57203">
        <ele>94</ele>
        <time>2021-03-27T11:23:36Z</time>
      </trkpt>
      <trkpt lat="49.84444" lon="2.57456">
        <ele>92</ele>
        <time>2021-03-27T11:24:14Z</time>
      </trkpt>
      <trkpt lat="49.84488" lon="2.57463">
        <ele>92</ele>
        <time>2021-03-27T11:24:25Z</time>
      </trkpt>
      <trkpt lat="49.84492" lon="2.57491">
        <ele>93</ele>
        <time>2021-03-27T11:24:29Z</time>
      </trkpt>
      <trkpt lat="49.84508" lon="2.57504">
        <ele>93</ele>
        <time>2021-03-27T11:24:33Z</time>
      </trkpt>
      <trkpt lat="49.84524" lon="2.57506">
        <ele>93</ele>
        <time>2021-03-27T11:24:37Z</time>
      </trkpt>
      <trkpt lat="49.84543" lon="2.57492">
        <ele>94</ele>
        <time>2021-03-27T11:24:42Z</time>
      </trkpt>
      <trkpt lat="49.84548" lon="2.57459">
        <ele>94</ele>
        <time>2021-03-27T11:24:47Z</time>
      </trkpt>
      <trkpt lat="49.84558" lon="2.57408">
        <ele>94</ele>
        <time>2021-03-27T11:24:55Z</time>
      </trkpt>
      <trkpt lat="49.84566" lon="2.57384">
        <ele>95</ele>
        <time>2021-03-27T11:24:59Z</time>
      </trkpt>
      <trkpt lat="49.84595" lon="2.57365">
        <ele>97</ele>
        <time>2021-03-27T11:25:07Z</time>
      </trkpt>
      <trkpt lat="49.84637" lon="2.5734">
        <ele>98</ele>
        <time>2021-03-27T11:25:17Z</time>
      </trkpt>
      <trkpt lat="49.84664" lon="2.57339">
        <ele>99</ele>
        <time>2021-03-27T11:25:23Z</time>
      </trkpt>
      <trkpt lat="49.84703" lon="2.57349">
        <ele>98</ele>
        <time>2021-03-27T11:25:33Z</time>
      </trkpt>
      <trkpt lat="49.84734" lon="2.57342">
        <ele>98</ele>
        <time>2021-03-27T11:25:40Z</time>
      </trkpt>
      <trkpt lat="49.84752" lon="2.57324">
        <ele>98</ele>
        <time>2021-03-27T11:25:45Z</time>
      </trkpt>
      <trkpt lat="49.84755" lon="2.57306">
        <ele>98</ele>
        <time>2021-03-27T11:25:48Z</time>
      </trkpt>
      <trkpt lat="49.84801" lon="2.57308">
        <ele>98</ele>
        <time>2021-03-27T11:25:58Z</time>
      </trkpt>
      <trkpt lat="49.84859" lon="2.57326">
        <ele>98</ele>
        <time>2021-03-27T11:26:12Z</time>
      </trkpt>
      <trkpt lat="49.8485" lon="2.57409">
        <ele>97</ele>
        <time>2021-03-27T11:26:25Z</time>
      </trkpt>
    </trkseg>
  </trk>
</gpx>